createdAt,value
2022-12-01T00:02:14.223Z,7.75
2022-12-01T00:04:41.905Z,7.88
2022-12-01T00:07:09.326Z,8.27
2022-12-01T00:09:55.474Z,8.10
2022-12-01T00:12:22.946Z,7.85
2022-12-01T00:14:54.986Z,8.45
2022-12-01T00:17:22.798Z,8.20
2022-12-01T00:19:50.689Z,7.78
2022-12-01T00:22:18.206Z,8.15
2022-12-01T00:24:45.650Z,6.80
2022-12-01T00:27:13.146Z,8.27
2022-12-01T00:29:40.799Z,8.38
2022-12-01T00:32:08.285Z,7.57
2022-12-01T00:34:35.970Z,8.85
2022-12-01T00:37:03.369Z,9.00
2022-12-01T00:39:30.833Z,8.75
2022-12-01T00:41:58.236Z,9.38
2022-12-01T00:44:25.772Z,9.25
2022-12-01T00:46:53.209Z,9.63
2022-12-01T00:49:20.682Z,9.02
2022-12-01T00:51:48.234Z,9.65
2022-12-01T00:54:15.766Z,9.35
2022-12-01T00:56:43.184Z,9.27
2022-12-01T00:59:10.747Z,9.30
2022-12-01T01:01:38.239Z,9.38
2022-12-01T01:04:05.870Z,9.38
2022-12-01T01:06:33.305Z,10.20
2022-12-01T01:09:00.799Z,9.50
2022-12-01T01:11:28.223Z,10.07
2022-12-01T01:13:55.689Z,10.27
2022-12-01T01:16:23.370Z,10.18
2022-12-01T01:18:51.107Z,10.02
2022-12-01T01:21:21.084Z,10.40
2022-12-01T01:23:49.424Z,10.10
2022-12-01T01:26:19.311Z,8.63
2022-12-01T01:28:47.518Z,11.32
2022-12-01T01:31:16.483Z,10.73
2022-12-01T01:33:44.684Z,10.52
2022-12-01T01:36:12.250Z,10.80
2022-12-01T01:38:39.749Z,9.32
2022-12-01T01:41:07.560Z,10.65
2022-12-01T01:43:51.961Z,10.73
2022-12-01T01:46:19.464Z,10.68
2022-12-01T01:48:49.055Z,11.07
2022-12-01T01:51:17.722Z,10.32
2022-12-01T01:53:46.297Z,10.35
2022-12-01T01:56:13.861Z,9.35
2022-12-01T01:58:41.868Z,9.75
2022-12-01T02:01:09.440Z,11.65
2022-12-01T02:03:38.059Z,11.43
2022-12-01T02:06:07.221Z,10.90
2022-12-01T02:08:36.228Z,10.90
2022-12-01T02:11:13.042Z,10.40
2022-12-01T02:13:58.913Z,10.13
2022-12-01T02:16:46.621Z,10.45
2022-12-01T02:19:31.393Z,10.85
2022-12-01T02:22:01.917Z,11.73
2022-12-01T02:24:47.728Z,10.77
2022-12-01T02:27:38.534Z,10.88
2022-12-01T02:30:11.747Z,10.20
2022-12-01T02:32:42.434Z,10.25
2022-12-01T02:35:15.710Z,8.70
2022-12-01T02:37:43.177Z,9.02
2022-12-01T02:40:14.158Z,9.77
2022-12-01T02:42:49.711Z,9.65
2022-12-01T02:45:29.752Z,9.95
2022-12-01T02:48:00.950Z,7.97
2022-12-01T02:50:29.974Z,10.35
2022-12-01T02:52:57.840Z,9.85
2022-12-01T02:55:25.465Z,10.70
2022-12-01T02:57:52.896Z,10.48
2022-12-01T03:00:20.718Z,10.25
2022-12-01T03:03:17.492Z,9.32
2022-12-01T03:06:12.460Z,10.75
2022-12-01T03:08:51.243Z,9.52
2022-12-01T03:11:30.010Z,10.25
2022-12-01T03:14:15.610Z,10.27
2022-12-01T03:16:50.929Z,10.60
2022-12-01T03:21:50.471Z,8.75
2022-12-01T03:24:20.155Z,8.75
2022-12-01T03:26:49.617Z,8.85
2022-12-01T03:29:19.198Z,9.48
2022-12-01T03:31:49.837Z,8.68
2022-12-01T03:34:35.545Z,8.63
2022-12-01T03:39:33.413Z,8.63
2022-12-01T03:42:03.269Z,7.88
2022-12-01T03:44:33.770Z,8.98
2022-12-01T03:47:04.783Z,8.93
2022-12-01T03:49:32.567Z,9.57
2022-12-01T03:51:59.973Z,9.13
2022-12-01T03:54:32.431Z,9.80
2022-12-01T03:57:03.537Z,9.20
2022-12-01T03:59:31.826Z,9.65
2022-12-01T04:01:59.283Z,10.35
2022-12-01T04:04:26.732Z,10.35
2022-12-01T04:06:54.252Z,10.05
2022-12-01T04:09:21.789Z,10.25
2022-12-01T04:12:07.763Z,9.40
2022-12-01T04:14:35.235Z,9.55
2022-12-01T04:17:02.627Z,9.73
2022-12-01T04:19:30.040Z,10.05
2022-12-01T04:21:57.505Z,10.52
2022-12-01T04:24:24.930Z,8.93
2022-12-01T04:26:52.454Z,9.10
2022-12-01T04:29:19.901Z,10.45
2022-12-01T04:31:47.394Z,10.20
2022-12-01T04:34:14.844Z,10.20
2022-12-01T04:36:42.302Z,10.10
2022-12-01T04:39:09.659Z,10.25
2022-12-01T04:41:37.064Z,10.32
2022-12-01T04:44:04.498Z,10.68
2022-12-01T04:46:31.942Z,10.63
2022-12-01T04:48:59.425Z,10.27
2022-12-01T04:51:26.798Z,10.38
2022-12-01T04:53:54.317Z,9.02
2022-12-01T04:56:22.065Z,10.15
2022-12-01T04:58:49.883Z,10.82
2022-12-01T05:01:18.789Z,9.18
2022-12-01T05:03:49.486Z,9.68
2022-12-01T05:06:18.690Z,9.38
2022-12-01T05:08:46.360Z,10.20
2022-12-01T05:11:16.705Z,9.82
2022-12-01T05:13:45.299Z,11.02
2022-12-01T05:16:17.733Z,11.43
2022-12-01T05:18:48.546Z,11.27
2022-12-01T05:21:16.169Z,10.32
2022-12-01T05:23:45.514Z,9.30
2022-12-01T05:26:13.017Z,12.10
2022-12-01T05:28:41.087Z,10.98
2022-12-01T05:31:08.684Z,9.82
2022-12-01T05:33:36.202Z,10.93
2022-12-01T05:36:03.682Z,10.65
2022-12-01T05:38:31.079Z,10.75
2022-12-01T05:40:58.520Z,12.00
2022-12-01T05:43:29.390Z,12.73
2022-12-01T05:45:57.869Z,12.82
2022-12-01T05:48:25.325Z,12.38
2022-12-01T05:50:52.883Z,12.48
2022-12-01T05:53:20.434Z,13.63
2022-12-01T05:55:51.930Z,15.25
2022-12-01T05:58:19.529Z,17.10
2022-12-01T06:00:46.909Z,15.02
2022-12-01T06:03:14.720Z,13.50
2022-12-01T06:05:42.353Z,13.40
2022-12-01T06:08:09.864Z,13.27
2022-12-01T06:10:37.222Z,13.63
2022-12-01T06:13:04.705Z,13.32
2022-12-01T06:15:32.083Z,14.38
2022-12-01T06:17:59.914Z,14.93
2022-12-01T06:20:27.565Z,14.50
2022-12-01T06:22:55.134Z,14.63
2022-12-01T06:25:22.565Z,13.25
2022-12-01T06:27:49.989Z,14.43
2022-12-01T06:30:17.560Z,13.57
2022-12-01T06:32:44.975Z,12.00
2022-12-01T06:35:12.793Z,13.10
2022-12-01T06:37:40.210Z,14.35
2022-12-01T06:40:08.153Z,14.75
2022-12-01T06:42:35.580Z,18.30
2022-12-01T06:45:03.127Z,15.25
2022-12-01T06:47:30.515Z,13.40
2022-12-01T06:49:58.022Z,15.25
2022-12-01T06:52:25.397Z,14.27
2022-12-01T06:54:52.856Z,16.50
2022-12-01T06:57:20.541Z,14.30
2022-12-01T06:59:48.625Z,13.45
2022-12-01T07:02:17.127Z,16.70
2022-12-01T07:04:44.602Z,14.93
2022-12-01T07:07:12.723Z,14.88
2022-12-01T07:09:40.453Z,14.55
2022-12-01T07:12:08.222Z,12.02
2022-12-01T07:14:35.972Z,12.90
2022-12-01T07:17:03.464Z,14.15
2022-12-01T07:19:31.075Z,13.88
2022-12-01T07:21:58.499Z,11.70
2022-12-01T07:24:25.858Z,13.98
2022-12-01T07:26:53.378Z,13.05
2022-12-01T07:29:20.825Z,13.57
2022-12-01T07:31:48.311Z,10.57
2022-12-01T07:34:15.767Z,11.50
2022-12-01T07:36:43.351Z,12.65
2022-12-01T07:39:10.740Z,13.00
2022-12-01T07:41:38.245Z,10.82
2022-12-01T07:44:05.718Z,11.75
2022-12-01T07:46:33.219Z,12.45
2022-12-01T07:49:00.679Z,11.85
2022-12-01T07:51:28.421Z,13.77
2022-12-01T07:53:56.047Z,11.63
2022-12-01T07:56:23.731Z,10.23
2022-12-01T07:58:51.534Z,11.13
2022-12-01T08:01:20.491Z,10.70
2022-12-01T08:03:51.379Z,10.30
2022-12-01T08:06:19.584Z,10.30
2022-12-01T08:08:47.425Z,11.68
2022-12-01T08:11:16.617Z,11.35
2022-12-01T08:13:44.560Z,9.93
2022-12-01T08:16:13.760Z,12.45
2022-12-01T08:18:41.868Z,12.32
2022-12-01T08:21:10.299Z,9.88
2022-12-01T08:23:37.807Z,13.73
2022-12-01T08:26:09.530Z,17.15
2022-12-01T08:28:37.493Z,11.15
2022-12-01T08:31:09.354Z,9.88
2022-12-01T08:33:37.407Z,11.35
2022-12-01T08:36:05.927Z,11.55
2022-12-01T08:38:33.583Z,10.88
2022-12-01T08:41:04.647Z,11.95
2022-12-01T08:43:56.757Z,14.07
2022-12-01T08:46:19.808Z,9.23
2022-12-01T08:48:47.566Z,11.98
2022-12-01T08:51:16.188Z,9.75
2022-12-01T08:53:45.820Z,8.70
2022-12-01T08:56:15.684Z,10.43
2022-12-01T08:58:43.411Z,10.40
2022-12-01T09:01:12.810Z,11.23
2022-12-01T09:03:40.651Z,11.80
2022-12-01T09:06:09.243Z,9.27
2022-12-01T09:08:37.038Z,9.65
2022-12-01T09:11:08.722Z,9.55
2022-12-01T09:13:37.012Z,9.23
2022-12-01T09:16:06.063Z,10.18
2022-12-01T09:18:33.593Z,11.70
2022-12-01T09:21:01.388Z,11.90
2022-12-01T09:23:28.857Z,13.77
2022-12-01T09:25:56.248Z,10.50
2022-12-01T09:28:24.080Z,11.07
2022-12-01T09:30:51.470Z,9.05
2022-12-01T09:33:19.007Z,10.73
2022-12-01T09:35:46.383Z,9.02
2022-12-01T09:38:13.840Z,8.95
2022-12-01T09:40:43.513Z,9.90
2022-12-01T09:43:20.763Z,8.90
2022-12-01T09:45:51.051Z,11.60
2022-12-01T09:48:25.848Z,10.02
2022-12-01T09:50:53.909Z,24.35
2022-12-01T09:53:23.150Z,9.23
2022-12-01T09:55:50.977Z,17.23
2022-12-01T09:58:23.895Z,8.85
2022-12-01T10:00:52.293Z,8.77
2022-12-01T10:03:32.889Z,9.00
2022-12-01T10:09:06.146Z,10.27
2022-12-01T10:11:40.427Z,19.05
2022-12-01T10:14:15.152Z,8.45
2022-12-01T10:16:50.653Z,6.78
2022-12-01T10:19:29.526Z,7.20
2022-12-01T10:22:15.802Z,7.05
2022-12-01T10:24:49.207Z,6.65
2022-12-01T10:27:16.643Z,7.30
2022-12-01T10:29:47.961Z,7.00
2022-12-01T10:32:18.949Z,6.90
2022-12-01T10:34:47.981Z,7.07
2022-12-01T10:37:18.223Z,8.15
2022-12-01T10:39:47.387Z,6.10
2022-12-01T10:42:15.375Z,6.88
2022-12-01T10:44:43.370Z,6.55
2022-12-01T10:47:20.255Z,6.63
2022-12-01T10:49:48.542Z,6.55
2022-12-01T10:52:31.148Z,6.00
2022-12-01T10:54:58.662Z,7.00
2022-12-01T10:57:27.313Z,6.30
2022-12-01T10:59:54.790Z,6.53
2022-12-01T11:02:23.625Z,6.00
2022-12-01T11:05:06.183Z,6.22
2022-12-01T11:07:33.714Z,8.02
2022-12-01T11:10:07.154Z,7.75
2022-12-01T11:12:34.900Z,6.88
2022-12-01T11:15:02.883Z,5.63
2022-12-01T11:17:33.350Z,6.57
2022-12-01T11:20:17.728Z,6.13
2022-12-01T11:22:45.231Z,6.30
2022-12-01T11:25:20.301Z,5.05
2022-12-01T11:27:50.581Z,4.72
2022-12-01T11:30:29.421Z,5.55
2022-12-01T11:32:59.024Z,5.55
2022-12-01T11:35:31.136Z,4.82
2022-12-01T11:40:49.631Z,4.22
2022-12-01T11:43:36.732Z,4.63
2022-12-01T11:46:06.281Z,3.72
2022-12-01T11:48:35.362Z,4.50
2022-12-01T11:51:09.084Z,3.92
2022-12-01T11:53:41.121Z,4.55
2022-12-01T11:56:17.592Z,5.20
2022-12-01T11:58:46.223Z,9.23
2022-12-01T12:01:22.110Z,4.68
2022-12-01T12:03:59.619Z,4.43
2022-12-01T12:06:45.503Z,5.20
2022-12-01T12:09:44.718Z,4.60
2022-12-01T12:12:31.027Z,3.88
2022-12-01T12:17:28.615Z,5.22
2022-12-01T12:20:12.027Z,3.80
2022-12-01T12:22:39.947Z,3.83
2022-12-01T12:25:13.375Z,5.20
2022-12-01T12:27:47.035Z,6.82
2022-12-01T12:30:19.968Z,7.28
2022-12-01T12:33:02.578Z,5.60
2022-12-01T12:35:49.939Z,4.78
2022-12-01T12:38:28.475Z,7.88
2022-12-01T12:40:58.828Z,5.32
2022-12-01T12:43:29.414Z,7.70
2022-12-01T12:46:06.198Z,4.72
2022-12-01T12:48:35.989Z,4.75
2022-12-01T12:51:08.342Z,5.13
2022-12-01T12:53:58.088Z,6.07
2022-12-01T12:56:26.606Z,5.18
2022-12-01T12:59:11.779Z,5.50
2022-12-01T13:02:02.256Z,5.00
2022-12-01T13:04:40.796Z,5.57
2022-12-01T13:07:28.748Z,5.95
2022-12-01T13:10:01.006Z,7.50
2022-12-01T13:12:33.093Z,6.50
2022-12-01T13:15:20.862Z,6.95
2022-12-01T13:18:09.173Z,7.10
2022-12-01T13:20:38.232Z,6.63
2022-12-01T13:23:05.941Z,6.95
2022-12-01T13:25:35.747Z,5.88
2022-12-01T13:28:03.962Z,5.20
2022-12-01T13:30:31.371Z,5.55
2022-12-01T13:33:00.987Z,5.13
2022-12-01T13:35:31.661Z,5.40
2022-12-01T13:38:18.433Z,6.00
2022-12-01T13:40:46.021Z,5.65
2022-12-01T13:43:20.643Z,8.00
2022-12-01T13:45:49.184Z,6.20
2022-12-01T13:48:48.957Z,5.85
2022-12-01T13:51:16.719Z,6.25
2022-12-01T13:54:04.427Z,6.32
2022-12-01T13:56:39.203Z,7.85
2022-12-01T13:59:28.159Z,7.25
2022-12-01T14:02:07.883Z,8.57
2022-12-01T14:04:37.120Z,10.63
2022-12-01T14:07:15.643Z,10.55
2022-12-01T14:09:44.190Z,7.65
2022-12-01T14:12:23.007Z,9.38
2022-12-01T14:14:54.953Z,8.95
2022-12-01T14:17:27.516Z,9.00
2022-12-01T14:19:55.586Z,7.15
2022-12-01T14:22:33.561Z,7.03
2022-12-01T14:25:01.486Z,8.57
2022-12-01T14:27:35.079Z,9.65
2022-12-01T14:30:21.502Z,9.02
2022-12-01T14:32:48.939Z,11.40
2022-12-01T14:35:16.769Z,11.82
2022-12-01T14:37:45.047Z,13.70
2022-12-01T14:40:19.888Z,17.65
2022-12-01T14:43:08.090Z,11.85
2022-12-01T14:45:56.165Z,13.55
2022-12-01T14:48:27.696Z,12.00
2022-12-01T14:51:02.030Z,14.52
2022-12-01T14:53:32.535Z,16.75
2022-12-01T14:56:08.263Z,13.70
2022-12-01T14:58:35.873Z,14.25
2022-12-01T15:01:11.331Z,13.32
2022-12-01T15:03:49.516Z,12.52
2022-12-01T15:06:18.680Z,19.75
2022-12-01T15:09:03.954Z,14.10
2022-12-01T15:13:59.209Z,11.60
2022-12-01T15:16:29.315Z,13.90
2022-12-01T15:18:57.036Z,19.13
2022-12-01T15:21:24.431Z,15.10
2022-12-01T15:23:57.973Z,13.70
2022-12-01T15:26:27.258Z,14.15
2022-12-01T15:29:06.739Z,26.88
2022-12-01T15:31:35.811Z,27.60
2022-12-01T15:34:03.542Z,22.73
2022-12-01T15:36:31.101Z,20.17
2022-12-01T15:39:06.788Z,20.15
2022-12-01T15:41:35.359Z,33.55
2022-12-01T15:44:05.400Z,20.15
2022-12-01T15:46:37.287Z,20.17
2022-12-01T15:49:29.421Z,15.77
2022-12-01T15:52:05.830Z,14.00
2022-12-01T15:54:33.547Z,18.13
2022-12-01T15:57:01.271Z,18.73
2022-12-01T15:59:34.717Z,20.35
2022-12-01T16:02:07.120Z,18.42
2022-12-01T16:04:35.508Z,21.88
2022-12-01T16:07:05.656Z,20.25
2022-12-01T16:09:37.544Z,17.10
2022-12-01T16:12:08.047Z,14.70
2022-12-01T16:14:36.415Z,15.32
2022-12-01T16:17:05.474Z,15.80
2022-12-01T16:19:33.975Z,15.57
2022-12-01T16:22:04.992Z,13.00
2022-12-01T16:24:37.289Z,15.05
2022-12-01T16:27:09.570Z,14.75
2022-12-01T16:29:57.240Z,14.10
2022-12-01T16:32:24.748Z,14.15
2022-12-01T16:34:53.070Z,16.27
2022-12-01T16:37:24.379Z,13.75
2022-12-01T16:39:51.836Z,15.80
2022-12-01T16:42:23.466Z,17.85
2022-12-01T16:44:52.160Z,14.73
2022-12-01T16:47:20.367Z,15.30
2022-12-01T16:49:47.890Z,15.65
2022-12-01T16:52:43.252Z,15.57
2022-12-01T16:55:02.921Z,15.13
2022-12-01T16:57:30.306Z,16.85
2022-12-01T16:59:57.864Z,18.63
2022-12-01T17:02:25.301Z,14.00
2022-12-01T17:04:52.976Z,18.15
2022-12-01T17:07:20.790Z,16.10
2022-12-01T17:09:48.237Z,14.43
2022-12-01T17:12:15.659Z,15.85
2022-12-01T17:14:43.133Z,14.23
2022-12-01T17:17:10.644Z,14.20
2022-12-01T17:19:38.066Z,14.73
2022-12-01T17:22:05.490Z,14.18
2022-12-01T17:24:33.027Z,16.63
2022-12-01T17:27:00.951Z,15.88
2022-12-01T17:29:28.347Z,18.30
2022-12-01T17:31:55.857Z,15.52
2022-12-01T17:34:23.262Z,15.05
2022-12-01T17:36:53.648Z,20.35
2022-12-01T17:39:21.116Z,18.52
2022-12-01T17:41:48.551Z,17.20
2022-12-01T17:44:16.057Z,16.63
2022-12-01T17:46:43.582Z,16.52
2022-12-01T17:49:12.044Z,15.55
2022-12-01T17:51:39.648Z,15.93
2022-12-01T17:54:07.697Z,16.70
2022-12-01T17:56:35.288Z,16.27
2022-12-01T17:59:03.168Z,14.43
2022-12-01T18:01:30.864Z,14.57
2022-12-01T18:03:59.203Z,13.55
2022-12-01T18:06:27.109Z,12.50
2022-12-01T18:08:55.090Z,12.00
2022-12-01T18:11:23.913Z,10.48
2022-12-01T18:13:52.061Z,11.70
2022-12-01T18:16:24.935Z,12.02
2022-12-01T18:18:52.829Z,12.52
2022-12-01T18:21:21.213Z,12.93
2022-12-01T18:23:52.354Z,11.23
2022-12-01T18:26:22.082Z,11.98
2022-12-01T18:28:56.673Z,11.90
2022-12-01T18:31:24.498Z,10.07
2022-12-01T18:33:51.969Z,11.32
2022-12-01T18:36:21.176Z,13.95
2022-12-01T18:38:48.883Z,12.40
2022-12-01T18:41:16.791Z,13.02
2022-12-01T18:43:44.515Z,13.30
2022-12-01T18:46:13.453Z,14.52
2022-12-01T18:48:45.346Z,15.18
2022-12-01T18:51:12.975Z,14.43
2022-12-01T18:53:40.519Z,12.27
2022-12-01T18:56:11.701Z,14.32
2022-12-01T18:58:39.571Z,12.63
2022-12-01T19:01:40.211Z,12.45
2022-12-01T19:04:09.154Z,12.30
2022-12-01T19:06:38.290Z,13.23
2022-12-01T19:09:07.009Z,10.82
2022-12-01T19:11:34.494Z,9.75
2022-12-01T19:14:03.666Z,10.15
2022-12-01T19:16:31.259Z,9.50
2022-12-01T19:18:59.073Z,11.52
2022-12-01T19:21:26.731Z,10.13
2022-12-01T19:23:54.228Z,10.75
2022-12-01T19:26:22.355Z,9.88
2022-12-01T19:28:50.502Z,10.23
2022-12-01T19:31:23.655Z,9.93
2022-12-01T19:33:51.807Z,9.57
2022-12-01T19:36:20.866Z,11.15
2022-12-01T19:38:48.576Z,9.68
2022-12-01T19:41:16.297Z,9.38
2022-12-01T19:43:44.062Z,9.57
2022-12-01T19:46:16.159Z,7.82
2022-12-01T19:48:45.111Z,8.60
2022-12-01T19:51:19.452Z,9.57
2022-12-01T19:53:47.117Z,8.45
2022-12-01T19:56:14.521Z,8.25
2022-12-01T19:58:42.095Z,9.55
2022-12-01T20:01:11.394Z,10.40
2022-12-01T20:03:40.599Z,9.77
2022-12-01T20:06:09.258Z,10.27
2022-12-01T20:08:37.526Z,9.38
2022-12-01T20:11:05.817Z,9.63
2022-12-01T20:13:38.780Z,9.75
2022-12-01T20:16:10.866Z,10.30
2022-12-01T20:18:38.703Z,10.38
2022-12-01T20:21:10.758Z,9.73
2022-12-01T20:23:38.297Z,7.75
2022-12-01T20:26:07.408Z,8.85
2022-12-01T20:28:35.801Z,23.40
2022-12-01T20:31:03.319Z,9.73
2022-12-01T20:33:31.178Z,14.85
2022-12-01T20:35:58.652Z,11.82
2022-12-01T20:38:27.813Z,6.25
2022-12-01T20:40:55.665Z,8.07
2022-12-01T20:43:23.190Z,6.25
2022-12-01T20:45:50.761Z,6.15
2022-12-01T20:48:18.370Z,6.55
2022-12-01T20:50:46.015Z,6.90
2022-12-01T20:53:13.527Z,7.18
2022-12-01T20:55:41.049Z,6.53
2022-12-01T20:58:11.474Z,6.60
2022-12-01T21:00:39.961Z,6.60
2022-12-01T21:03:07.656Z,7.50
2022-12-01T21:05:35.300Z,7.53
2022-12-01T21:08:03.261Z,7.30
2022-12-01T21:10:30.815Z,7.55
2022-12-01T21:13:23.883Z,7.53
2022-12-01T21:15:58.582Z,8.25
2022-12-01T21:18:31.832Z,7.63
2022-12-01T21:21:07.956Z,8.50
2022-12-01T21:23:35.454Z,7.65
2022-12-01T21:26:02.959Z,8.55
2022-12-01T21:28:30.552Z,8.63
2022-12-01T21:31:18.222Z,8.85
2022-12-01T21:33:46.241Z,9.00
2022-12-01T21:36:18.005Z,9.70
2022-12-01T21:38:45.664Z,9.18
2022-12-01T21:41:25.103Z,9.52
2022-12-01T21:43:52.673Z,9.90
2022-12-01T21:46:20.168Z,9.48
2022-12-01T21:48:47.838Z,9.32
2022-12-01T21:51:15.198Z,9.73
2022-12-01T21:53:42.639Z,10.60
2022-12-01T21:56:16.278Z,9.82
2022-12-01T21:58:44.689Z,9.07
2022-12-01T22:01:31.545Z,9.68
2022-12-01T22:04:02.338Z,9.38
2022-12-01T22:06:40.667Z,9.48
2022-12-01T22:09:27.364Z,9.68
2022-12-01T22:11:55.965Z,9.65
2022-12-01T22:14:24.800Z,9.65
2022-12-01T22:16:52.149Z,10.90
2022-12-01T22:19:36.298Z,9.52
2022-12-01T22:22:09.453Z,9.20
2022-12-01T22:24:41.722Z,9.48
2022-12-01T22:27:29.250Z,9.75
2022-12-01T22:29:58.425Z,8.55
2022-12-01T22:32:28.823Z,10.30
2022-12-01T22:34:58.568Z,9.85
2022-12-01T22:37:34.889Z,9.73
2022-12-01T22:40:23.297Z,9.93
2022-12-01T22:42:50.706Z,9.13
2022-12-01T22:45:23.768Z,9.40
2022-12-01T22:47:52.065Z,8.90
2022-12-01T22:50:28.593Z,9.48
2022-12-01T22:53:11.778Z,8.90
2022-12-01T22:55:40.335Z,9.63
2022-12-01T22:58:26.587Z,9.32
2022-12-01T23:00:57.720Z,8.65
2022-12-01T23:03:25.476Z,9.98
2022-12-01T23:05:56.050Z,9.55
2022-12-01T23:08:24.030Z,9.82
2022-12-01T23:10:51.740Z,9.90
2022-12-01T23:13:23.614Z,9.05
2022-12-01T23:15:52.962Z,8.68
2022-12-01T23:18:23.507Z,9.77
2022-12-01T23:20:52.137Z,9.40
2022-12-01T23:23:20.823Z,9.48
2022-12-01T23:25:49.863Z,10.02
2022-12-01T23:28:17.546Z,9.13
2022-12-01T23:30:45.793Z,9.93
2022-12-01T23:33:16.190Z,10.55
2022-12-01T23:35:46.644Z,10.63
2022-12-01T23:38:16.603Z,10.27
2022-12-01T23:40:44.519Z,10.68
2022-12-01T23:43:20.440Z,10.77
2022-12-01T23:45:49.037Z,10.00
2022-12-01T23:48:25.714Z,10.90
2022-12-01T23:50:54.202Z,9.85
2022-12-01T23:53:24.744Z,11.13
2022-12-01T23:55:52.137Z,10.38
2022-12-01T23:58:19.519Z,10.55
